Terminal Aerodrome Forecast
Issued by NWS

Current Version | Previous Version | Text Only | Print | Product List | Glossary On
Versions: 1 2 3 4 5 6 7 8 9 10 11 12 13 14 15 16
000
FTUS44 KBMX 272340
TAFEET
TAF
KEET 272340Z 2800/2824 28004KT P6SM SCT050 SCT250
     FM280200 32002KT P6SM FEW050 FEW250
     FM281600 26008KT P6SM SKC=

USA.gov is the U.S. government's official web portal to all federal, state and local government web resources and services.